Time;durP1;ratioP1;P1;durP2;ratioP2;P2;SDS_P1;SDS_P2;PMS_P1;PMS_P2;Temp;Humidity;BMP_temperature;BMP_pressure;BME280_temperature;BME280_humidity;BME280_pressure;Samples;Min_cycle;Max_cycle;Signal;HPM_P1;HPM_P2
2023/12/10 00:01:05;;;;;;;11.45;10.25;;;3.60;1.00;;;;;;5152674;27;20230;-77
2023/12/10 00:03:37;;;;;;;11.15;9.77;;;3.60;1.00;;;;;;5129475;27;21539;-77
2023/12/10 00:06:05;;;;;;;12.88;10.43;;;3.60;1.00;;;;;;5149182;27;20242;-77
2023/12/10 00:08:39;;;;;;;13.90;9.48;;;3.60;1.00;;;;;;5145437;27;20925;-78
2023/12/10 00:11:11;;;;;;;11.55;9.73;;;3.60;1.00;;;;;;5152147;27;21013;-79
2023/12/10 00:13:39;;;;;;;13.10;11.15;;;3.70;1.00;;;;;;5151498;27;20728;-77
2023/12/10 00:16:07;;;;;;;13.80;10.10;;;3.60;1.00;;;;;;5149407;27;20234;-78
2023/12/10 00:18:37;;;;;;;11.63;9.55;;;3.60;1.00;;;;;;5118431;27;21063;-77
2023/12/10 00:21:05;;;;;;;12.10;10.07;;;3.60;1.00;;;;;;5146820;27;20237;-77
2023/12/10 00:23:37;;;;;;;11.88;10.20;;;3.60;1.00;;;;;;5133847;27;20234;-78
2023/12/10 00:26:04;;;;;;;12.15;10.57;;;3.60;1.00;;;;;;5142106;27;20230;-78
2023/12/10 00:28:31;;;;;;;12.23;9.55;;;3.60;1.00;;;;;;5147732;27;20233;-77
2023/12/10 00:30:58;;;;;;;11.27;10.07;;;3.60;1.00;;;;;;5144855;27;20234;-77
2023/12/10 00:33:25;;;;;;;14.52;11.05;;;3.50;1.00;;;;;;5146118;27;20339;-79
2023/12/10 00:35:52;;;;;;;14.63;11.43;;;3.60;1.00;;;;;;5142116;27;20292;-78
2023/12/10 00:38:19;;;;;;;11.82;10.68;;;3.60;1.00;;;;;;5138223;27;20229;-79
2023/12/10 00:40:49;;;;;;;11.38;10.18;;;3.50;1.00;;;;;;5147882;27;20265;-78
2023/12/10 00:43:17;;;;;;;12.90;10.32;;;3.60;1.00;;;;;;5131684;27;20959;-77
2023/12/10 00:45:45;;;;;;;13.35;11.25;;;3.50;1.00;;;;;;5125443;27;20238;-78
2023/12/10 00:48:13;;;;;;;11.18;10.00;;;3.50;1.00;;;;;;5143568;27;20238;-78
2023/12/10 00:50:43;;;;;;;11.38;10.27;;;3.60;1.00;;;;;;5151374;27;20259;-78
2023/12/10 00:53:10;;;;;;;12.63;10.82;;;3.50;1.00;;;;;;5147622;27;20230;-78
2023/12/10 00:55:39;;;;;;;13.40;11.45;;;3.50;1.00;;;;;;5148953;27;20394;-79
2023/12/10 00:58:07;;;;;;;15.23;10.38;;;3.50;1.00;;;;;;5133521;27;20238;-78
2023/12/10 01:00:34;;;;;;;13.82;11.00;;;3.50;1.00;;;;;;5128858;27;20233;-78
2023/12/10 01:03:03;;;;;;;12.20;10.40;;;3.50;1.00;;;;;;5137031;27;20241;-78
2023/12/10 01:05:34;;;;;;;11.77;10.50;;;3.50;1.00;;;;;;5151856;27;20762;-79
2023/12/10 01:08:03;;;;;;;11.73;10.13;;;3.50;1.00;;;;;;5148799;27;20890;-79
2023/12/10 01:10:31;;;;;;;11.88;9.60;;;3.50;1.00;;;;;;5132697;27;20261;-78
2023/12/10 01:12:58;;;;;;;13.32;10.55;;;3.50;1.00;;;;;;5150368;27;20260;-79
2023/12/10 01:15:30;;;;;;;12.93;10.73;;;3.50;1.00;;;;;;5157634;27;20241;-81
2023/12/10 01:18:00;;;;;;;11.73;10.27;;;3.60;1.00;;;;;;5146147;27;20242;-79
2023/12/10 01:20:30;;;;;;;10.77;9.60;;;3.50;1.00;;;;;;5125725;27;21446;-79
2023/12/10 01:22:58;;;;;;;10.90;9.80;;;3.60;1.00;;;;;;5156523;27;20234;-81
2023/12/10 01:25:26;;;;;;;10.30;9.20;;;3.50;1.00;;;;;;5154299;27;20339;-80
2023/12/10 01:27:54;;;;;;;12.40;10.05;;;3.50;1.00;;;;;;5157029;27;20238;-80
2023/12/10 01:30:23;;;;;;;12.60;10.45;;;3.50;1.00;;;;;;5143022;27;20237;-82
2023/12/10 01:32:54;;;;;;;11.43;10.23;;;3.50;1.00;;;;;;5154460;27;20245;-80
2023/12/10 01:35:23;;;;;;;13.18;9.95;;;3.50;1.00;;;;;;5152127;27;20235;-80
2023/12/10 01:37:50;;;;;;;10.95;9.90;;;3.60;1.00;;;;;;5151332;27;20320;-79
2023/12/10 01:40:19;;;;;;;10.80;9.70;;;3.50;1.00;;;;;;5156230;27;20238;-80
2023/12/10 01:42:46;;;;;;;12.73;10.57;;;3.50;1.00;;;;;;5155747;27;20245;-84
2023/12/10 01:45:14;;;;;;;11.10;9.90;;;3.50;1.00;;;;;;5153157;27;20238;-80
2023/12/10 01:47:43;;;;;;;12.35;10.73;;;3.50;1.00;;;;;;5155010;27;20215;-80
2023/12/10 01:50:13;;;;;;;12.77;10.98;;;3.40;1.00;;;;;;5141011;27;20238;-81
2023/12/10 01:52:41;;;;;;;11.48;10.20;;;3.40;1.00;;;;;;5152507;27;20249;-79
2023/12/10 01:55:09;;;;;;;11.27;10.07;;;3.40;1.00;;;;;;5155637;27;20884;-78
2023/12/10 01:57:37;;;;;;;12.52;10.45;;;3.40;1.00;;;;;;5146168;27;20971;-79
2023/12/10 02:00:07;;;;;;;11.95;10.65;;;3.40;1.00;;;;;;5153284;27;21018;-79
2023/12/10 02:02:35;;;;;;;12.10;10.63;;;3.40;1.00;;;;;;5149679;27;20832;-79
2023/12/10 02:05:06;;;;;;;11.90;10.60;;;3.40;1.00;;;;;;5156841;27;21053;-79
2023/12/10 02:07:35;;;;;;;10.20;9.18;;;3.40;1.00;;;;;;5147527;27;20373;-80
2023/12/10 02:10:04;;;;;;;11.13;9.95;;;3.30;1.00;;;;;;5146344;27;20235;-80
2023/12/10 02:12:33;;;;;;;10.10;9.07;;;3.30;1.00;;;;;;5151679;27;20234;-80
2023/12/10 02:15:12;;;;;;;10.27;9.05;;;3.30;1.00;;;;;;5152050;27;20229;-79
2023/12/10 02:17:42;;;;;;;11.10;9.73;;;3.30;1.00;;;;;;5150758;27;20222;-81
2023/12/10 02:20:11;;;;;;;11.23;9.13;;;3.20;1.00;;;;;;5141815;27;20286;-80
2023/12/10 02:22:46;;;;;;;10.98;9.73;;;3.10;1.00;;;;;;5157785;27;20236;-81
2023/12/10 02:25:15;;;;;;;9.52;8.52;;;3.10;1.00;;;;;;5156209;27;20290;-79
2023/12/10 02:27:44;;;;;;;11.23;9.38;;;3.10;1.00;;;;;;5146917;27;20233;-81
2023/12/10 02:30:13;;;;;;;10.57;9.13;;;3.10;1.00;;;;;;5154122;27;20236;-83
2023/12/10 02:32:41;;;;;;;9.90;8.90;;;3.00;1.00;;;;;;5158941;27;20242;-83
2023/12/10 02:35:09;;;;;;;9.55;8.55;;;3.00;1.00;;;;;;5158941;27;20226;-81
2023/12/10 02:37:59;;;;;;;8.93;8.02;;;3.10;1.00;;;;;;5156014;27;20222;-78
2023/12/10 02:40:26;;;;;;;9.10;8.13;;;3.10;1.00;;;;;;5150821;27;20246;-79
2023/12/10 02:42:55;;;;;;;10.48;8.45;;;3.10;1.00;;;;;;5151198;27;20234;-80
2023/12/10 02:45:22;;;;;;;9.52;8.07;;;3.00;1.00;;;;;;5139607;27;21174;-80
2023/12/10 02:47:49;;;;;;;8.85;7.95;;;3.00;1.00;;;;;;5151337;27;20234;-80
2023/12/10 02:50:16;;;;;;;8.63;7.40;;;2.90;1.00;;;;;;5147466;27;20316;-78
2023/12/10 02:52:44;;;;;;;9.80;8.80;;;2.90;1.00;;;;;;5148575;27;20923;-79
2023/12/10 02:55:12;;;;;;;10.48;8.35;;;3.00;1.00;;;;;;5150566;27;20658;-81
2023/12/10 02:57:39;;;;;;;10.40;9.30;;;3.10;1.00;;;;;;5138285;27;20235;-79
2023/12/10 03:00:10;;;;;;;10.65;9.50;;;3.00;1.00;;;;;;5143909;27;20234;-79
2023/12/10 03:02:38;;;;;;;9.88;8.82;;;3.00;1.00;;;;;;5145329;27;20230;-79
2023/12/10 03:05:08;;;;;;;11.85;8.38;;;3.00;1.00;;;;;;5145852;27;20237;-79
2023/12/10 03:07:35;;;;;;;11.38;9.20;;;3.00;1.00;;;;;;5152078;27;20238;-79
2023/12/10 03:10:03;;;;;;;13.07;9.68;;;3.00;1.00;;;;;;5149493;27;20257;-79
2023/12/10 03:12:32;;;;;;;9.07;8.20;;;3.00;1.00;;;;;;5130018;27;20235;-79
2023/12/10 03:15:00;;;;;;;9.38;8.00;;;3.00;1.00;;;;;;5151505;27;20324;-80
2023/12/10 03:17:29;;;;;;;8.82;7.93;;;3.00;1.00;;;;;;5149945;27;20689;-79
2023/12/10 03:19:56;;;;;;;9.05;8.15;;;3.00;1.00;;;;;;5147464;27;20321;-79
2023/12/10 03:22:23;;;;;;;9.60;8.57;;;3.00;1.00;;;;;;5144580;27;20245;-78
2023/12/10 03:24:50;;;;;;;10.57;9.05;;;3.00;1.00;;;;;;5134010;27;20495;-80
2023/12/10 03:27:17;;;;;;;10.15;8.40;;;3.10;1.00;;;;;;5137999;27;20342;-78
2023/12/10 03:29:45;;;;;;;10.95;8.75;;;3.10;1.00;;;;;;5147205;27;20237;-79
2023/12/10 03:32:12;;;;;;;9.57;8.52;;;3.10;1.00;;;;;;5145320;27;20260;-80
2023/12/10 03:34:40;;;;;;;10.98;8.63;;;3.10;1.00;;;;;;5149546;27;21037;-79
2023/12/10 03:37:08;;;;;;;9.75;8.73;;;3.10;1.00;;;;;;5146639;27;20233;-79
2023/12/10 03:39:35;;;;;;;9.38;8.13;;;3.10;1.00;;;;;;5147291;27;20232;-80
2023/12/10 03:42:03;;;;;;;9.65;8.75;;;3.10;1.00;;;;;;5150781;27;20296;-79
2023/12/10 03:44:31;;;;;;;9.90;8.90;;;3.10;1.00;;;;;;5138236;27;21094;-79
2023/12/10 03:47:01;;;;;;;9.50;8.50;;;3.20;1.00;;;;;;5141032;27;20310;-79
2023/12/10 03:49:29;;;;;;;8.68;7.60;;;3.20;1.00;;;;;;5147700;27;20242;-78
2023/12/10 03:51:58;;;;;;;9.88;8.88;;;3.20;1.00;;;;;;5147785;27;20229;-80
2023/12/10 03:54:25;;;;;;;11.70;9.60;;;3.20;1.00;;;;;;5147669;27;20730;-80
2023/12/10 03:56:52;;;;;;;10.27;8.95;;;3.10;1.00;;;;;;5133278;27;20952;-80
2023/12/10 03:59:20;;;;;;;11.30;9.30;;;3.10;1.00;;;;;;5130912;27;20238;-79
2023/12/10 04:01:47;;;;;;;10.32;9.23;;;3.20;1.00;;;;;;5148710;27;20805;-81
2023/12/10 04:04:14;;;;;;;13.27;10.48;;;3.30;1.00;;;;;;5150116;27;20229;-78
2023/12/10 04:06:41;;;;;;;12.25;9.65;;;3.20;1.00;;;;;;5150418;27;20234;-78
2023/12/10 04:09:09;;;;;;;10.82;9.45;;;3.20;1.00;;;;;;5146626;27;20230;-81
2023/12/10 04:11:37;;;;;;;12.27;10.50;;;3.20;1.00;;;;;;5145392;27;20234;-79
2023/12/10 04:14:07;;;;;;;12.05;10.05;;;3.20;1.00;;;;;;5155212;27;20578;-77
2023/12/10 04:16:34;;;;;;;11.40;10.20;;;3.20;1.00;;;;;;5140448;27;20256;-80
2023/12/10 04:19:01;;;;;;;10.25;9.25;;;3.20;1.00;;;;;;5145137;27;20240;-78
2023/12/10 04:21:28;;;;;;;13.10;9.82;;;3.20;1.00;;;;;;5129656;27;20234;-78
2023/12/10 04:23:57;;;;;;;11.40;8.90;;;3.20;1.00;;;;;;5141881;27;20344;-80
2023/12/10 04:26:26;;;;;;;10.63;9.52;;;3.20;1.00;;;;;;5148200;27;20233;-80
2023/12/10 04:28:54;;;;;;;12.63;10.50;;;3.20;1.00;;;;;;5148447;27;20721;-79
2023/12/10 04:31:22;;;;;;;11.10;9.98;;;3.20;1.00;;;;;;5144342;27;20773;-79
2023/12/10 04:33:50;;;;;;;12.00;9.60;;;3.20;1.00;;;;;;5140086;27;20238;-79
2023/12/10 04:36:20;;;;;;;11.10;9.48;;;3.20;1.00;;;;;;5144501;27;20230;-79
2023/12/10 04:38:47;;;;;;;11.45;9.57;;;3.20;1.00;;;;;;5124186;27;20248;-79
2023/12/10 04:41:15;;;;;;;10.77;9.60;;;3.20;1.00;;;;;;5142932;27;20239;-80
2023/12/10 04:43:44;;;;;;;10.45;8.98;;;3.20;1.00;;;;;;5146792;27;20241;-77
2023/12/10 04:46:11;;;;;;;11.23;10.02;;;3.30;1.00;;;;;;5146728;27;20222;-81
2023/12/10 04:48:38;;;;;;;10.20;9.10;;;3.30;1.00;;;;;;5144832;27;20226;-77
2023/12/10 04:51:08;;;;;;;11.85;9.93;;;3.30;1.00;;;;;;5134227;27;20663;-80
2023/12/10 04:53:35;;;;;;;12.10;10.77;;;3.30;1.00;;;;;;5141896;27;20230;-78
2023/12/10 04:56:03;;;;;;;12.70;10.25;;;3.30;1.00;;;;;;5155124;27;20234;-80
2023/12/10 04:58:30;;;;;;;11.85;10.50;;;3.30;1.00;;;;;;5148262;27;20233;-78
2023/12/10 05:00:58;;;;;;;13.15;11.23;;;3.30;1.00;;;;;;5132156;27;20291;-76
2023/12/10 05:03:26;;;;;;;10.95;9.85;;;3.30;1.00;;;;;;5140897;27;20234;-80
2023/12/10 05:05:54;;;;;;;12.95;10.40;;;3.30;1.00;;;;;;5145881;27;20811;-77
2023/12/10 05:08:22;;;;;;;13.25;10.90;;;3.30;1.00;;;;;;5129080;27;20292;-77
2023/12/10 05:10:50;;;;;;;12.30;10.13;;;3.40;1.00;;;;;;5121394;27;20222;-80
2023/12/10 05:13:19;;;;;;;12.50;10.73;;;3.40;1.00;;;;;;5142331;27;20241;-78
2023/12/10 05:15:46;;;;;;;13.00;10.60;;;3.40;1.00;;;;;;5146686;27;20266;-81
2023/12/10 05:18:15;;;;;;;12.57;10.88;;;3.30;1.00;;;;;;5142425;27;20241;-80
2023/12/10 05:20:42;;;;;;;14.38;11.25;;;3.30;1.00;;;;;;5146018;27;20329;-81
2023/12/10 05:23:10;;;;;;;17.90;11.88;;;3.40;1.00;;;;;;5144949;27;20238;-78
2023/12/10 05:25:37;;;;;;;12.68;11.38;;;3.30;1.00;;;;;;5137125;27;20241;-81
2023/12/10 05:28:06;;;;;;;14.95;12.57;;;3.40;1.00;;;;;;5131814;27;20233;-80
2023/12/10 05:30:33;;;;;;;15.77;11.05;;;3.40;1.00;;;;;;5149888;27;20229;-82
2023/12/10 05:33:01;;;;;;;13.40;11.70;;;3.40;1.00;;;;;;5146731;27;20231;-84
2023/12/10 05:35:30;;;;;;;13.65;11.20;;;3.50;1.00;;;;;;5145664;27;20230;-83
2023/12/10 05:37:58;;;;;;;15.52;12.45;;;3.50;1.00;;;;;;5132202;27;20253;-83
2023/12/10 05:40:25;;;;;;;13.57;10.80;;;3.50;1.00;;;;;;5140375;27;20234;-81
2023/12/10 05:42:57;;;;;;;14.23;11.10;;;3.50;1.00;;;;;;5114913;27;20245;-82
2023/12/10 05:45:27;;;;;;;11.70;10.50;;;3.50;1.00;;;;;;5131700;27;20230;-82
2023/12/10 05:47:55;;;;;;;13.55;11.10;;;3.50;1.00;;;;;;5128439;27;20241;-80
2023/12/10 05:50:23;;;;;;;15.98;13.02;;;3.60;1.00;;;;;;5143407;27;20237;-82
2023/12/10 05:52:53;;;;;;;12.93;10.75;;;3.60;1.00;;;;;;5145395;27;21071;-82
2023/12/10 05:55:20;;;;;;;13.02;11.45;;;3.70;1.00;;;;;;5143492;27;20709;-82
2023/12/10 05:57:47;;;;;;;13.50;10.25;;;3.70;1.00;;;;;;5131605;27;20241;-80
2023/12/10 06:00:15;;;;;;;13.48;11.15;;;3.70;1.00;;;;;;5143141;27;20667;-79
2023/12/10 06:02:42;;;;;;;13.90;12.18;;;3.70;1.00;;;;;;5130440;27;20316;-81
2023/12/10 06:05:09;;;;;;;11.40;10.20;;;3.80;1.00;;;;;;5143363;27;20238;-79
2023/12/10 06:07:36;;;;;;;14.02;10.70;;;3.80;1.00;;;;;;5143689;27;20234;-82
2023/12/10 06:10:05;;;;;;;12.38;11.05;;;3.80;1.00;;;;;;5147345;27;20260;-81
2023/12/10 06:12:35;;;;;;;12.98;10.05;;;3.80;1.00;;;;;;5142865;27;20742;-81
2023/12/10 06:15:05;;;;;;;12.68;10.43;;;3.90;1.00;;;;;;5146998;27;20234;-77
2023/12/10 06:17:32;;;;;;;12.15;10.75;;;4.00;1.00;;;;;;5146246;27;20242;-82
2023/12/10 06:19:59;;;;;;;14.60;10.90;;;4.00;1.00;;;;;;5147644;27;20234;-80
2023/12/10 06:22:26;;;;;;;13.18;11.05;;;4.00;1.00;;;;;;5145639;27;20237;-84
2023/12/10 06:24:53;;;;;;;13.32;11.38;;;4.10;1.00;;;;;;5118105;27;20245;-82
2023/12/10 06:27:21;;;;;;;13.02;11.63;;;4.10;1.00;;;;;;5146097;27;21164;-81
2023/12/10 06:29:49;;;;;;;13.98;11.35;;;4.00;1.00;;;;;;5150037;27;20240;-80
2023/12/10 06:32:16;;;;;;;16.08;12.48;;;3.90;1.00;;;;;;5147005;27;20238;-80
2023/12/10 06:34:45;;;;;;;16.45;12.50;;;3.90;1.00;;;;;;5148299;27;20250;-81
2023/12/10 06:37:12;;;;;;;16.75;13.05;;;3.90;1.00;;;;;;5148030;27;21023;-81
2023/12/10 06:39:40;;;;;;;16.20;13.20;;;3.90;1.00;;;;;;5147005;27;20249;-83
2023/12/10 06:42:08;;;;;;;19.23;12.50;;;3.80;1.00;;;;;;5136450;27;20308;-81
2023/12/10 06:44:36;;;;;;;16.33;12.68;;;3.90;1.00;;;;;;5132344;27;20331;-82
2023/12/10 06:47:07;;;;;;;15.05;12.18;;;3.80;1.00;;;;;;5146325;27;20237;-82
2023/12/10 06:49:35;;;;;;;13.80;11.77;;;3.80;1.00;;;;;;5136434;27;20263;-82
2023/12/10 06:52:04;;;;;;;13.80;12.30;;;3.80;1.00;;;;;;5136788;27;20285;-81
2023/12/10 06:54:31;;;;;;;14.95;12.10;;;3.80;1.00;;;;;;5142887;27;20245;-82
2023/12/10 06:56:58;;;;;;;18.00;12.90;;;3.90;1.00;;;;;;5144330;27;20321;-81
2023/12/10 06:59:25;;;;;;;16.73;13.55;;;3.90;1.00;;;;;;5141765;27;21467;-82
2023/12/10 07:01:53;;;;;;;13.35;11.95;;;4.00;1.00;;;;;;5126368;27;20235;-82
2023/12/10 07:04:22;;;;;;;15.27;12.00;;;3.90;1.00;;;;;;5147425;27;20974;-81
2023/12/10 07:06:49;;;;;;;13.50;11.73;;;3.90;1.00;;;;;;5151849;27;20321;-82
2023/12/10 07:09:16;;;;;;;14.80;11.55;;;3.90;1.00;;;;;;5135421;27;20818;-82
2023/12/10 07:11:44;;;;;;;14.65;12.75;;;3.90;1.00;;;;;;5149739;27;20237;-80
2023/12/10 07:14:11;;;;;;;13.65;11.88;;;3.90;1.00;;;;;;5147601;27;20230;-84
2023/12/10 07:16:38;;;;;;;17.20;12.35;;;3.90;1.00;;;;;;5137984;27;20232;-84
2023/12/10 07:19:07;;;;;;;14.68;11.27;;;3.90;1.00;;;;;;5149505;27;20242;-83
2023/12/10 07:21:36;;;;;;;14.70;11.30;;;3.90;1.00;;;;;;5144884;27;20313;-83
2023/12/10 07:24:04;;;;;;;16.50;11.48;;;3.80;1.00;;;;;;5150814;27;20629;-83
2023/12/10 07:26:31;;;;;;;15.00;11.73;;;3.80;1.00;;;;;;5148933;27;20262;-81
2023/12/10 07:28:58;;;;;;;12.73;10.80;;;3.90;1.00;;;;;;5149631;27;20321;-79
2023/12/10 07:31:27;;;;;;;12.65;11.15;;;3.90;1.00;;;;;;5150243;27;20291;-80
2023/12/10 07:33:54;;;;;;;13.85;12.40;;;3.90;1.00;;;;;;5142319;27;20234;-82
2023/12/10 07:36:22;;;;;;;16.02;12.05;;;3.90;1.00;;;;;;5133819;27;20322;-81
2023/12/10 07:38:49;;;;;;;14.25;11.10;;;4.00;1.00;;;;;;5145068;27;20302;-82
2023/12/10 07:41:16;;;;;;;14.45;11.93;;;4.00;1.00;;;;;;5149665;27;20435;-82
2023/12/10 07:43:43;;;;;;;18.67;12.73;;;4.10;1.00;;;;;;5145031;27;20231;-83
2023/12/10 07:46:10;;;;;;;15.45;11.88;;;4.20;1.00;;;;;;5136145;27;20239;-81
2023/12/10 07:48:37;;;;;;;21.13;13.07;;;4.30;1.00;;;;;;5146661;27;20324;-83
2023/12/10 07:51:05;;;;;;;17.35;13.05;;;4.30;1.00;;;;;;5148464;27;20236;-81
2023/12/10 07:53:33;;;;;;;14.95;13.25;;;4.40;1.00;;;;;;5139764;27;21805;-79
2023/12/10 07:56:00;;;;;;;19.23;12.48;;;4.50;1.00;;;;;;5142155;27;20242;-81
2023/12/10 07:58:27;;;;;;;15.38;11.80;;;4.50;1.00;;;;;;5138958;27;20293;-81
2023/12/10 08:00:54;;;;;;;18.52;12.40;;;4.60;1.00;;;;;;5137266;27;20234;-81
2023/12/10 08:03:21;;;;;;;13.45;12.02;;;4.60;1.00;;;;;;5138599;27;20935;-83
2023/12/10 08:05:48;;;;;;;14.50;11.85;;;4.70;1.00;;;;;;5134806;27;20238;-84
2023/12/10 08:08:16;;;;;;;15.10;11.50;;;4.80;1.00;;;;;;5136532;27;20321;-79
2023/12/10 08:10:46;;;;;;;18.45;11.95;;;4.90;1.00;;;;;;5144366;27;20249;-80
2023/12/10 08:13:13;;;;;;;15.25;11.40;;;5.00;1.00;;;;;;5148102;27;20264;-82
2023/12/10 08:15:41;;;;;;;15.55;11.52;;;5.20;1.00;;;;;;5149624;27;20251;-82
2023/12/10 08:18:09;;;;;;;15.30;12.38;;;5.30;1.00;;;;;;5133918;27;20256;-79
2023/12/10 08:20:38;;;;;;;16.92;11.95;;;5.40;1.00;;;;;;5144360;27;20283;-81
2023/12/10 08:23:05;;;;;;;17.17;12.35;;;5.40;1.00;;;;;;5146401;27;21015;-82
2023/12/10 08:25:34;;;;;;;12.85;11.18;;;5.40;1.00;;;;;;5144464;27;20238;-78
2023/12/10 08:28:04;;;;;;;13.10;11.70;;;5.40;1.00;;;;;;5136904;27;20240;-81
2023/12/10 08:30:34;;;;;;;14.23;11.35;;;5.40;1.00;;;;;;5143179;27;20768;-82
2023/12/10 08:33:01;;;;;;;16.30;12.40;;;5.40;1.00;;;;;;5148102;27;20250;-83
2023/12/10 08:35:28;;;;;;;13.65;11.80;;;5.40;1.00;;;;;;5141329;27;20267;-80
2023/12/10 08:37:55;;;;;;;17.58;12.02;;;5.40;1.00;;;;;;5140835;27;21077;-82
2023/12/10 08:40:22;;;;;;;13.98;11.80;;;5.50;1.00;;;;;;5151432;27;20250;-82
2023/12/10 08:42:49;;;;;;;12.00;10.52;;;5.60;1.00;;;;;;5147781;27;20740;-84
2023/12/10 08:45:19;;;;;;;15.30;11.50;;;5.70;1.00;;;;;;5145241;27;20233;-79
2023/12/10 08:47:46;;;;;;;13.90;10.93;;;5.80;1.00;;;;;;5146674;27;20239;-82
2023/12/10 08:50:14;;;;;;;13.73;9.45;;;5.90;1.00;;;;;;5144983;27;20264;-82
2023/12/10 08:52:42;;;;;;;13.52;9.75;;;6.00;1.00;;;;;;5147018;27;20715;-82
2023/12/10 08:55:10;;;;;;;17.35;11.27;;;6.10;1.00;;;;;;5147107;27;21530;-81
2023/12/10 08:57:37;;;;;;;13.45;9.27;;;6.20;1.00;;;;;;5133798;27;20258;-83
2023/12/10 09:00:07;;;;;;;11.82;9.00;;;6.30;1.00;;;;;;5134406;27;20242;-79
2023/12/10 09:02:35;;;;;;;12.10;9.70;;;6.50;1.00;;;;;;5149447;27;20241;-80
2023/12/10 09:05:02;;;;;;;12.82;9.45;;;6.60;1.00;;;;;;5140427;27;20471;-82
2023/12/10 09:07:31;;;;;;;13.77;9.23;;;6.70;1.00;;;;;;5147573;27;20244;-82
2023/12/10 09:09:59;;;;;;;14.03;9.33;;;6.90;1.00;;;;;;5147739;27;20455;-82
2023/12/10 09:12:27;;;;;;;13.77;9.53;;;7.00;1.00;;;;;;5148376;27;20456;-81
2023/12/10 09:14:55;;;;;;;13.73;8.13;;;7.10;1.00;;;;;;5150052;27;20554;-81
2023/12/10 09:17:22;;;;;;;11.80;7.30;;;7.10;1.00;;;;;;5146434;27;20461;-81
2023/12/10 09:19:50;;;;;;;16.50;7.47;;;7.20;1.00;;;;;;5127875;27;21316;-79
2023/12/10 09:22:19;;;;;;;10.63;6.60;;;7.20;1.00;;;;;;5147049;27;20502;-81
2023/12/10 09:24:46;;;;;;;16.87;7.60;;;7.30;1.00;;;;;;5153883;27;20431;-82
2023/12/10 09:27:14;;;;;;;13.57;7.20;;;7.40;1.00;;;;;;5148744;27;20451;-81
2023/12/10 09:29:42;;;;;;;14.20;7.13;;;7.50;1.00;;;;;;5141818;27;20519;-81
2023/12/10 09:32:10;;;;;;;14.07;7.00;;;7.50;1.00;;;;;;5151022;27;20435;-81
2023/12/10 09:34:38;;;;;;;11.40;7.10;;;7.50;1.00;;;;;;5150145;27;21396;-81
2023/12/10 09:37:08;;;;;;;19.40;7.27;;;7.50;1.00;;;;;;5150922;27;20526;-80
2023/12/10 09:39:35;;;;;;;13.93;6.20;;;7.50;1.00;;;;;;5126587;27;20503;-81
2023/12/10 09:42:02;;;;;;;14.63;5.87;;;7.50;1.00;;;;;;5141678;27;21039;-81
2023/12/10 09:44:30;;;;;;;13.83;6.30;;;7.40;1.00;;;;;;5147916;27;21251;-81
2023/12/10 09:46:58;;;;;;;12.57;5.40;;;7.40;1.00;;;;;;5152498;27;20830;-80
2023/12/10 09:49:30;;;;;;;9.50;6.13;;;7.50;1.00;;;;;;5152339;27;20474;-81
2023/12/10 09:51:57;;;;;;;11.67;5.70;;;7.50;1.00;;;;;;5152949;27;20452;-81
2023/12/10 09:54:26;;;;;;;9.90;5.73;;;7.60;1.00;;;;;;5149566;27;20479;-81
2023/12/10 09:56:54;;;;;;;15.03;7.13;;;7.60;1.00;;;;;;5151267;27;20463;-81
2023/12/10 09:59:21;;;;;;;11.50;5.70;;;7.70;1.00;;;;;;5151910;27;20534;-81
2023/12/10 10:01:50;;;;;;;18.33;6.50;;;7.70;1.00;;;;;;5147668;27;20468;-80
2023/12/10 10:04:18;;;;;;;12.40;6.30;;;7.70;1.00;;;;;;5144973;27;20443;-82
2023/12/10 10:06:45;;;;;;;12.68;6.15;;;7.80;1.00;;;;;;5149304;27;20440;-82
2023/12/10 10:09:12;;;;;;;17.90;6.10;;;7.80;1.00;;;;;;5152793;27;20244;-83
2023/12/10 10:11:41;;;;;;;15.30;6.70;;;7.80;1.00;;;;;;5153462;27;20427;-82
2023/12/10 10:14:12;;;;;;;16.90;6.43;;;7.80;1.00;;;;;;5154902;27;20473;-79
2023/12/10 10:16:39;;;;;;;18.20;5.47;;;7.90;1.00;;;;;;5152772;27;20475;-85
2023/12/10 10:19:06;;;;;;;15.33;5.37;;;7.90;1.00;;;;;;5151605;27;20540;-82
2023/12/10 10:21:33;;;;;;;8.80;4.50;;;8.00;1.00;;;;;;5139496;27;20469;-82
2023/12/10 10:24:00;;;;;;;11.70;5.27;;;8.20;1.00;;;;;;5138327;27;21420;-81
2023/12/10 10:26:31;;;;;;;13.23;5.10;;;8.20;1.00;;;;;;5155979;27;20522;-83
2023/12/10 10:28:58;;;;;;;15.87;5.40;;;8.10;1.00;;;;;;5151713;27;21298;-81
2023/12/10 10:31:26;;;;;;;15.73;5.63;;;8.10;1.00;;;;;;5127323;27;20459;-82
2023/12/10 10:33:54;;;;;;;12.20;4.23;;;8.10;1.00;;;;;;5158036;27;20475;-81
2023/12/10 10:36:21;;;;;;;14.30;5.33;;;8.00;1.00;;;;;;5139876;27;20449;-81
2023/12/10 10:38:52;;;;;;;11.50;5.47;;;8.00;1.00;;;;;;5149652;27;20455;-79
2023/12/10 10:41:20;;;;;;;11.43;4.60;;;8.00;1.00;;;;;;5144558;27;20457;-81
2023/12/10 10:43:47;;;;;;;17.57;6.00;;;8.00;1.00;;;;;;5146190;27;20464;-82
2023/12/10 10:46:20;;;;;;;16.77;6.00;;;8.00;1.00;;;;;;5136732;27;20499;-81
2023/12/10 10:48:51;;;;;;;12.67;5.93;;;7.90;1.00;;;;;;5138231;27;21379;-82
2023/12/10 10:51:21;;;;;;;11.70;4.33;;;8.00;1.00;;;;;;5148448;27;20452;-80
2023/12/10 10:53:49;;;;;;;12.97;4.50;;;8.00;1.00;;;;;;5151987;27;20527;-81
2023/12/10 10:56:17;;;;;;;11.93;4.53;;;8.00;1.00;;;;;;5152557;27;20968;-79
2023/12/10 10:58:45;;;;;;;15.57;5.60;;;8.00;1.00;;;;;;5153908;27;20424;-81
2023/12/10 11:01:40;;;;;;;11.53;4.67;;;8.00;1.00;;;;;;5141419;27;20522;-79
2023/12/10 11:04:07;;;;;;;12.27;4.37;;;8.00;1.00;;;;;;5146812;27;20526;-79
2023/12/10 11:06:36;;;;;;;14.10;5.10;;;8.00;1.00;;;;;;5137171;27;20447;-79
2023/12/10 11:09:04;;;;;;;12.30;4.43;;;8.00;1.00;;;;;;5150764;27;20412;-81
2023/12/10 11:11:38;;;;;;;13.57;4.93;;;8.00;1.00;;;;;;5136000;27;20243;-80
2023/12/10 11:14:18;;;;;;;34.30;5.03;;;8.00;1.00;;;;;;5148806;27;20478;-81
2023/12/10 11:16:50;;;;;;;11.53;4.73;;;8.00;1.00;;;;;;5150092;27;20443;-80
2023/12/10 11:19:21;;;;;;;9.13;4.53;;;7.90;1.00;;;;;;5154027;27;20462;-83
2023/12/10 11:21:49;;;;;;;17.73;4.40;;;8.00;1.00;;;;;;5148720;27;20564;-84
2023/12/10 11:24:16;;;;;;;10.83;4.50;;;7.90;1.00;;;;;;5152001;27;20464;-82
2023/12/10 11:26:44;;;;;;;7.80;3.50;;;7.80;1.00;;;;;;5159218;27;20444;-82
2023/12/10 11:29:11;;;;;;;16.10;4.23;;;7.80;1.00;;;;;;5144171;27;20473;-83
2023/12/10 11:31:39;;;;;;;13.60;4.20;;;7.90;1.00;;;;;;5150224;27;20408;-82
2023/12/10 11:34:08;;;;;;;13.40;4.90;;;7.90;1.00;;;;;;5151914;27;20467;-83
2023/12/10 11:36:36;;;;;;;11.80;3.97;;;7.90;1.00;;;;;;5151212;27;20456;-86
2023/12/10 11:39:03;;;;;;;12.17;3.97;;;7.90;1.00;;;;;;5150466;27;20459;-82
2023/12/10 11:41:31;;;;;;;10.63;4.03;;;7.90;1.00;;;;;;5152591;27;20517;-81
2023/12/10 11:43:58;;;;;;;13.00;4.13;;;7.90;1.00;;;;;;5138721;27;20475;-82
2023/12/10 11:46:25;;;;;;;13.30;4.10;;;7.90;1.00;;;;;;5154020;27;20552;-82
2023/12/10 11:48:53;;;;;;;7.27;4.00;;;7.90;1.00;;;;;;5150665;27;20509;-81
2023/12/10 11:51:25;;;;;;;11.00;4.33;;;7.90;1.00;;;;;;5154935;27;20459;-82
2023/12/10 11:53:52;;;;;;;13.47;4.10;;;7.90;1.00;;;;;;5135201;27;21001;-81
2023/12/10 11:56:19;;;;;;;11.53;3.60;;;7.90;1.00;;;;;;5135035;27;20462;-82
2023/12/10 11:58:47;;;;;;;10.07;4.40;;;7.80;1.00;;;;;;5144076;27;20453;-81
2023/12/10 12:01:17;;;;;;;9.70;3.83;;;7.80;1.00;;;;;;5123681;27;20577;-82
2023/12/10 12:03:45;;;;;;;14.80;4.13;;;7.90;1.00;;;;;;5147194;27;20846;-81
2023/12/10 12:06:12;;;;;;;14.37;5.10;;;7.90;1.00;;;;;;5147412;27;21047;-81
2023/12/10 12:08:41;;;;;;;11.87;4.20;;;7.90;1.00;;;;;;5149972;27;20460;-82
2023/12/10 12:11:08;;;;;;;9.67;3.30;;;7.90;1.00;;;;;;5154274;27;21043;-81
2023/12/10 12:13:37;;;;;;;14.20;5.60;;;7.90;1.00;;;;;;5148925;27;21222;-82
2023/12/10 12:16:07;;;;;;;11.47;4.20;;;7.90;1.00;;;;;;5139128;27;20468;-81
2023/12/10 12:18:34;;;;;;;10.23;3.43;;;7.90;1.00;;;;;;5149915;27;20466;-82
2023/12/10 12:21:02;;;;;;;8.70;3.10;;;7.90;1.00;;;;;;5149180;27;21235;-83
2023/12/10 12:23:30;;;;;;;12.47;5.20;;;7.90;1.00;;;;;;5135475;27;21554;-82
2023/12/10 12:26:01;;;;;;;7.90;3.53;;;8.00;1.00;;;;;;5150202;27;20457;-81
2023/12/10 12:28:28;;;;;;;6.77;3.60;;;7.90;1.00;;;;;;5151857;27;20428;-81
2023/12/10 12:30:57;;;;;;;8.73;4.70;;;7.80;1.00;;;;;;5142905;27;20476;-82
2023/12/10 12:33:25;;;;;;;7.10;3.80;;;7.90;1.00;;;;;;5148304;27;20484;-81
2023/12/10 12:35:52;;;;;;;10.83;3.63;;;7.90;1.00;;;;;;5151364;27;20450;-82
2023/12/10 12:38:21;;;;;;;7.47;3.93;;;7.90;1.00;;;;;;5153545;27;20602;-83
2023/12/10 12:40:49;;;;;;;7.93;5.10;;;7.90;1.00;;;;;;5151959;27;20456;-83
2023/12/10 12:43:17;;;;;;;10.20;4.40;;;7.80;1.00;;;;;;5152432;27;21062;-84
2023/12/10 12:45:46;;;;;;;10.20;4.77;;;7.80;1.00;;;;;;5155084;27;20416;-84
2023/12/10 12:48:13;;;;;;;10.33;4.70;;;7.80;1.00;;;;;;5137304;27;20462;-84
2023/12/10 12:50:40;;;;;;;15.30;5.20;;;7.80;1.00;;;;;;5141452;27;20529;-82
2023/12/10 12:53:07;;;;;;;13.43;5.57;;;7.80;1.00;;;;;;5142409;27;21244;-85
2023/12/10 12:55:34;;;;;;;15.17;6.33;;;7.80;1.00;;;;;;5155013;27;21215;-83
2023/12/10 12:58:01;;;;;;;10.17;4.50;;;7.80;1.00;;;;;;5156464;27;20464;-83